sensor_id;sensor_type;location;lat;lon;timestamp;pressure;altitude;pressure_sealevel;temperature;humidity
66090;BME280;53113;45.602;11.904;2022-12-29T00:02:18;102133.48;;;7.17;63.52
66090;BME280;53113;45.602;11.904;2022-12-29T00:04:43;102131.52;;;7.14;63.72
66090;BME280;53113;45.602;11.904;2022-12-29T00:07:09;102138.50;;;7.11;63.57
66090;BME280;53113;45.602;11.904;2022-12-29T00:09:35;102137.61;;;7.11;63.70
66090;BME280;53113;45.602;11.904;2022-12-29T00:12:03;102139.09;;;7.14;63.80
66090;BME280;53113;45.602;11.904;2022-12-29T00:14:29;102143.64;;;7.19;63.73
66090;BME280;53113;45.602;11.904;2022-12-29T00:17:14;102138.87;;;7.24;63.92
66090;BME280;53113;45.602;11.904;2022-12-29T00:19:39;102135.73;;;7.28;63.88
66090;BME280;53113;45.602;11.904;2022-12-29T00:22:24;102131.38;;;7.31;63.95
66090;BME280;53113;45.602;11.904;2022-12-29T00:25:11;102137.26;;;7.33;63.76
66090;BME280;53113;45.602;11.904;2022-12-29T00:27:56;102129.27;;;7.35;63.80
66090;BME280;53113;45.602;11.904;2022-12-29T00:30:40;102118.30;;;7.37;63.87
66090;BME280;53113;45.602;11.904;2022-12-29T00:33:28;102116.70;;;7.37;63.85
66090;BME280;53113;45.602;11.904;2022-12-29T00:39:04;102110.89;;;7.36;63.86
66090;BME280;53113;45.602;11.904;2022-12-29T00:41:50;102106.54;;;7.35;63.83
66090;BME280;53113;45.602;11.904;2022-12-29T00:44:34;102110.44;;;7.34;63.84
66090;BME280;53113;45.602;11.904;2022-12-29T00:47:00;102108.17;;;7.34;63.83
66090;BME280;53113;45.602;11.904;2022-12-29T00:49:30;102105.77;;;7.33;63.80
66090;BME280;53113;45.602;11.904;2022-12-29T00:54:24;102106.86;;;7.32;63.86
66090;BME280;53113;45.602;11.904;2022-12-29T00:56:51;102102.93;;;7.33;63.87
66090;BME280;53113;45.602;11.904;2022-12-29T00:59:18;102096.64;;;7.36;63.93
66090;BME280;53113;45.602;11.904;2022-12-29T01:01:45;102093.30;;;7.40;64.03
66090;BME280;53113;45.602;11.904;2022-12-29T01:04:12;102091.01;;;7.45;63.93
66090;BME280;53113;45.602;11.904;2022-12-29T01:06:39;102087.52;;;7.48;63.98
66090;BME280;53113;45.602;11.904;2022-12-29T01:09:06;102085.86;;;7.50;64.03
66090;BME280;53113;45.602;11.904;2022-12-29T01:11:51;102084.44;;;7.50;64.08
66090;BME280;53113;45.602;11.904;2022-12-29T01:14:17;102091.34;;;7.49;64.21
66090;BME280;53113;45.602;11.904;2022-12-29T01:16:44;102097.02;;;7.48;64.20
66090;BME280;53113;45.602;11.904;2022-12-29T01:19:09;102095.35;;;7.46;64.22
66090;BME280;53113;45.602;11.904;2022-12-29T01:21:35;102092.36;;;7.45;64.21
66090;BME280;53113;45.602;11.904;2022-12-29T01:24:01;102091.90;;;7.44;64.18
66090;BME280;53113;45.602;11.904;2022-12-29T01:26:26;102096.86;;;7.43;64.17
66090;BME280;53113;45.602;11.904;2022-12-29T01:28:52;102099.42;;;7.41;64.20
66090;BME280;53113;45.602;11.904;2022-12-29T01:31:18;102102.29;;;7.40;64.10
66090;BME280;53113;45.602;11.904;2022-12-29T01:33:43;102089.98;;;7.39;64.20
66090;BME280;53113;45.602;11.904;2022-12-29T01:36:12;102085.48;;;7.37;64.15
66090;BME280;53113;45.602;11.904;2022-12-29T01:38:39;102096.48;;;7.36;64.16
66090;BME280;53113;45.602;11.904;2022-12-29T01:41:06;102101.20;;;7.37;64.20
66090;BME280;53113;45.602;11.904;2022-12-29T01:43:46;102098.98;;;7.39;64.04
66090;BME280;53113;45.602;11.904;2022-12-29T01:46:40;102105.10;;;7.44;64.05
66090;BME280;53113;45.602;11.904;2022-12-29T01:51:39;102102.60;;;7.50;63.93
66090;BME280;53113;45.602;11.904;2022-12-29T01:54:11;102104.19;;;7.50;63.91
66090;BME280;53113;45.602;11.904;2022-12-29T01:56:39;102110.24;;;7.48;64.09
66090;BME280;53113;45.602;11.904;2022-12-29T01:59:10;102107.64;;;7.47;63.86
66090;BME280;53113;45.602;11.904;2022-12-29T02:01:38;102109.64;;;7.45;63.78
66090;BME280;53113;45.602;11.904;2022-12-29T02:04:04;102104.10;;;7.43;63.81
66090;BME280;53113;45.602;11.904;2022-12-29T02:06:41;102106.34;;;7.40;63.79
66090;BME280;53113;45.602;11.904;2022-12-29T02:09:07;102112.29;;;7.37;63.81
66090;BME280;53113;45.602;11.904;2022-12-29T02:11:35;102109.05;;;7.34;63.78
66090;BME280;53113;45.602;11.904;2022-12-29T02:14:11;102106.04;;;7.30;63.80
66090;BME280;53113;45.602;11.904;2022-12-29T02:33:13;102100.48;;;7.10;64.71
66090;BME280;53113;45.602;11.904;2022-12-29T02:41:42;102089.51;;;7.20;65.02
66090;BME280;53113;45.602;11.904;2022-12-29T02:44:34;102086.30;;;7.21;64.99
66090;BME280;53113;45.602;11.904;2022-12-29T02:47:15;102084.41;;;7.20;64.98
66090;BME280;53113;45.602;11.904;2022-12-29T02:52:49;102082.40;;;7.17;65.12
66090;BME280;53113;45.602;11.904;2022-12-29T02:55:16;102081.09;;;7.15;65.16
66090;BME280;53113;45.602;11.904;2022-12-29T02:57:42;102079.77;;;7.13;65.30
66090;BME280;53113;45.602;11.904;2022-12-29T03:00:14;102076.65;;;7.12;65.42
66090;BME280;53113;45.602;11.904;2022-12-29T03:05:57;102072.07;;;7.07;65.34
66090;BME280;53113;45.602;11.904;2022-12-29T03:08:54;102070.36;;;7.06;65.21
66090;BME280;53113;45.602;11.904;2022-12-29T03:11:29;102067.84;;;7.02;65.31
66090;BME280;53113;45.602;11.904;2022-12-29T03:14:39;102063.33;;;7.01;65.19
66090;BME280;53113;45.602;11.904;2022-12-29T03:17:43;102060.41;;;7.04;65.20
66090;BME280;53113;45.602;11.904;2022-12-29T03:20:20;102061.83;;;7.08;65.09
66090;BME280;53113;45.602;11.904;2022-12-29T03:22:51;102059.59;;;7.11;64.94
66090;BME280;53113;45.602;11.904;2022-12-29T03:25:29;102061.98;;;7.13;64.99
66090;BME280;53113;45.602;11.904;2022-12-29T03:28:04;102060.22;;;7.13;64.98
66090;BME280;53113;45.602;11.904;2022-12-29T03:30:34;102056.35;;;7.13;65.03
66090;BME280;53113;45.602;11.904;2022-12-29T03:33:03;102051.27;;;7.12;65.18
66090;BME280;53113;45.602;11.904;2022-12-29T03:35:33;102055.15;;;7.12;65.10
66090;BME280;53113;45.602;11.904;2022-12-29T03:40:32;102047.48;;;7.10;65.20
66090;BME280;53113;45.602;11.904;2022-12-29T03:42:59;102051.13;;;7.07;65.19
66090;BME280;53113;45.602;11.904;2022-12-29T03:45:26;102047.49;;;7.05;65.13
66090;BME280;53113;45.602;11.904;2022-12-29T03:47:53;102047.08;;;7.02;65.10
66090;BME280;53113;45.602;11.904;2022-12-29T03:50:19;102059.48;;;7.00;65.12
66090;BME280;53113;45.602;11.904;2022-12-29T03:52:44;102054.48;;;6.98;65.29
66090;BME280;53113;45.602;11.904;2022-12-29T03:55:10;102052.15;;;6.98;65.36
66090;BME280;53113;45.602;11.904;2022-12-29T03:57:36;102048.85;;;7.02;65.39
66090;BME280;53113;45.602;11.904;2022-12-29T04:00:04;102048.30;;;7.07;65.46
66090;BME280;53113;45.602;11.904;2022-12-29T04:02:30;102061.14;;;7.12;65.43
66090;BME280;53113;45.602;11.904;2022-12-29T04:04:56;102059.77;;;7.15;65.53
66090;BME280;53113;45.602;11.904;2022-12-29T04:07:22;102051.56;;;7.17;65.59
66090;BME280;53113;45.602;11.904;2022-12-29T04:09:47;102042.52;;;7.19;65.65
66090;BME280;53113;45.602;11.904;2022-12-29T04:12:13;102038.77;;;7.20;65.76
66090;BME280;53113;45.602;11.904;2022-12-29T04:14:40;102038.22;;;7.21;65.73
66090;BME280;53113;45.602;11.904;2022-12-29T04:17:06;102039.41;;;7.22;65.66
66090;BME280;53113;45.602;11.904;2022-12-29T04:19:32;102038.35;;;7.22;65.71
66090;BME280;53113;45.602;11.904;2022-12-29T04:21:58;102038.52;;;7.22;65.77
66090;BME280;53113;45.602;11.904;2022-12-29T04:24:23;102043.46;;;7.22;65.85
66090;BME280;53113;45.602;11.904;2022-12-29T04:26:50;102039.12;;;7.20;65.93
66090;BME280;53113;45.602;11.904;2022-12-29T04:29:15;102039.11;;;7.21;65.87
66090;BME280;53113;45.602;11.904;2022-12-29T04:31:41;102044.62;;;7.19;66.19
66090;BME280;53113;45.602;11.904;2022-12-29T04:34:07;102046.03;;;7.20;66.31
66090;BME280;53113;45.602;11.904;2022-12-29T04:36:32;102049.94;;;7.23;66.26
66090;BME280;53113;45.602;11.904;2022-12-29T04:38:58;102052.21;;;7.28;66.42
66090;BME280;53113;45.602;11.904;2022-12-29T04:41:24;102050.65;;;7.32;66.38
66090;BME280;53113;45.602;11.904;2022-12-29T04:43:50;102054.76;;;7.35;66.51
66090;BME280;53113;45.602;11.904;2022-12-29T04:46:16;102051.17;;;7.36;66.55
66090;BME280;53113;45.602;11.904;2022-12-29T04:48:42;102050.96;;;7.37;66.63
66090;BME280;53113;45.602;11.904;2022-12-29T04:51:08;102046.59;;;7.36;66.60
66090;BME280;53113;45.602;11.904;2022-12-29T04:53:33;102040.93;;;7.37;66.63
66090;BME280;53113;45.602;11.904;2022-12-29T04:55:59;102050.09;;;7.37;66.55
66090;BME280;53113;45.602;11.904;2022-12-29T04:58:25;102057.55;;;7.35;66.50
66090;BME280;53113;45.602;11.904;2022-12-29T05:00:51;102051.96;;;7.34;66.54
66090;BME280;53113;45.602;11.904;2022-12-29T05:03:18;102052.19;;;7.33;66.55
66090;BME280;53113;45.602;11.904;2022-12-29T05:05:43;102051.71;;;7.32;66.51
66090;BME280;53113;45.602;11.904;2022-12-29T05:08:09;102043.89;;;7.29;66.40
66090;BME280;53113;45.602;11.904;2022-12-29T05:10:35;102053.66;;;7.27;66.45
66090;BME280;53113;45.602;11.904;2022-12-29T05:13:01;102052.62;;;7.27;66.39
66090;BME280;53113;45.602;11.904;2022-12-29T05:15:26;102054.42;;;7.30;66.32
66090;BME280;53113;45.602;11.904;2022-12-29T05:17:52;102048.78;;;7.34;66.30
66090;BME280;53113;45.602;11.904;2022-12-29T05:20:18;102052.19;;;7.38;66.28
66090;BME280;53113;45.602;11.904;2022-12-29T05:22:44;102060.55;;;7.39;66.36
66090;BME280;53113;45.602;11.904;2022-12-29T05:25:10;102057.03;;;7.39;66.37
66090;BME280;53113;45.602;11.904;2022-12-29T05:27:36;102062.11;;;7.40;66.44
66090;BME280;53113;45.602;11.904;2022-12-29T05:30:03;102053.96;;;7.37;66.41
66090;BME280;53113;45.602;11.904;2022-12-29T05:32:28;102055.27;;;7.35;66.49
66090;BME280;53113;45.602;11.904;2022-12-29T05:34:54;102055.31;;;7.34;66.35
66090;BME280;53113;45.602;11.904;2022-12-29T05:37:20;102062.10;;;7.32;66.27
66090;BME280;53113;45.602;11.904;2022-12-29T05:39:45;102063.63;;;7.29;66.20
66090;BME280;53113;45.602;11.904;2022-12-29T05:42:11;102066.17;;;7.27;66.21
66090;BME280;53113;45.602;11.904;2022-12-29T05:44:37;102071.95;;;7.23;66.32
66090;BME280;53113;45.602;11.904;2022-12-29T05:47:02;102071.70;;;7.21;66.19
66090;BME280;53113;45.602;11.904;2022-12-29T05:49:28;102067.94;;;7.18;66.39
